createdAt,value
2023-04-16T00:01:08.267Z,3.20
2023-04-16T00:03:38.510Z,3.42
2023-04-16T00:06:08.831Z,3.22
2023-04-16T00:08:38.953Z,3.20
2023-04-16T00:11:09.722Z,3.22
2023-04-16T00:13:39.865Z,4.13
2023-04-16T00:16:10.051Z,3.60
2023-04-16T00:18:40.318Z,3.58
2023-04-16T00:21:11.243Z,3.45
2023-04-16T00:23:41.337Z,3.40
2023-04-16T00:26:11.504Z,3.63
2023-04-16T00:28:41.867Z,4.10
2023-04-16T00:31:11.928Z,3.40
2023-04-16T00:33:42.172Z,3.70
2023-04-16T00:36:12.301Z,3.83
2023-04-16T00:38:42.433Z,3.30
2023-04-16T00:41:12.629Z,3.58
2023-04-16T00:43:42.896Z,3.35
2023-04-16T00:46:13.280Z,3.38
2023-04-16T00:48:45.027Z,3.47
2023-04-16T00:51:15.585Z,3.85
2023-04-16T00:53:46.216Z,3.25
2023-04-16T00:56:17.683Z,3.40
2023-04-16T00:58:48.000Z,3.42
2023-04-16T01:01:18.183Z,3.80
2023-04-16T01:03:49.721Z,2.88
2023-04-16T01:06:19.924Z,3.50
2023-04-16T01:08:50.033Z,3.40
2023-04-16T01:11:20.062Z,3.22
2023-04-16T01:13:50.637Z,2.97
2023-04-16T01:16:21.150Z,3.33
2023-04-16T01:18:51.352Z,3.63
2023-04-16T01:21:21.468Z,3.50
2023-04-16T01:23:51.585Z,3.65
2023-04-16T01:26:21.784Z,3.33
2023-04-16T01:28:51.898Z,3.10
2023-04-16T01:31:22.072Z,3.40
2023-04-16T01:33:52.259Z,3.85
2023-04-16T01:36:22.373Z,3.72
2023-04-16T01:38:52.557Z,3.92
2023-04-16T01:41:22.821Z,4.00
2023-04-16T01:43:52.884Z,4.22
2023-04-16T01:46:32.484Z,4.22
2023-04-16T01:49:04.597Z,3.75
2023-04-16T01:51:34.772Z,4.18
2023-04-16T01:54:05.040Z,3.95
2023-04-16T01:56:35.423Z,4.30
2023-04-16T01:59:05.679Z,4.05
2023-04-16T02:01:35.904Z,3.65
2023-04-16T02:04:06.696Z,4.05
2023-04-16T02:06:36.869Z,3.90
2023-04-16T02:09:07.114Z,3.70
2023-04-16T02:11:37.315Z,4.07
2023-04-16T02:14:08.758Z,3.92
2023-04-16T02:16:38.926Z,3.67
2023-04-16T02:19:09.382Z,3.95
2023-04-16T02:21:39.845Z,4.38
2023-04-16T02:24:10.032Z,4.20
2023-04-16T02:26:40.596Z,4.18
2023-04-16T02:29:11.142Z,4.38
2023-04-16T02:31:41.822Z,4.97
2023-04-16T02:34:11.943Z,3.92
2023-04-16T02:36:42.322Z,4.40
2023-04-16T02:39:12.399Z,4.07
2023-04-16T02:41:42.572Z,4.50
2023-04-16T02:44:12.641Z,4.60
2023-04-16T02:46:42.752Z,4.47
2023-04-16T02:49:12.887Z,4.28
2023-04-16T02:51:43.075Z,4.40
2023-04-16T02:54:13.292Z,4.20
2023-04-16T02:56:43.328Z,4.20
2023-04-16T02:59:13.533Z,4.05
2023-04-16T03:01:43.633Z,3.80
2023-04-16T03:04:13.923Z,4.00
2023-04-16T03:06:44.029Z,4.70
2023-04-16T03:09:15.163Z,4.15
2023-04-16T03:11:45.308Z,3.97
2023-04-16T03:14:15.645Z,3.78
2023-04-16T03:16:45.710Z,3.60
2023-04-16T03:19:16.009Z,3.60
2023-04-16T03:21:46.071Z,4.30
2023-04-16T03:24:16.470Z,4.75
2023-04-16T03:26:46.494Z,4.10
2023-04-16T03:29:16.554Z,4.22
2023-04-16T03:31:46.644Z,4.72
2023-04-16T03:34:16.958Z,4.03
2023-04-16T03:36:47.095Z,4.53
2023-04-16T03:39:17.349Z,4.05
2023-04-16T03:41:47.468Z,4.15
2023-04-16T03:44:17.574Z,4.63
2023-04-16T03:46:47.826Z,4.20
2023-04-16T03:49:17.933Z,4.72
2023-04-16T03:51:48.063Z,4.53
2023-04-16T03:54:19.262Z,4.80
2023-04-16T03:56:52.162Z,4.88
2023-04-16T03:59:22.293Z,4.57
2023-04-16T04:01:52.581Z,4.28
2023-04-16T04:04:23.472Z,4.65
2023-04-16T04:06:53.740Z,4.47
2023-04-16T04:09:23.845Z,4.60
2023-04-16T04:11:53.937Z,4.65
2023-04-16T04:14:24.050Z,5.47
2023-04-16T04:16:54.186Z,5.45
2023-04-16T04:19:24.293Z,5.22
2023-04-16T04:21:54.381Z,4.63
2023-04-16T04:24:24.590Z,4.38
2023-04-16T04:26:54.716Z,4.22
2023-04-16T04:29:24.874Z,4.15
2023-04-16T04:31:55.405Z,4.38
2023-04-16T04:34:25.741Z,4.22
2023-04-16T04:36:55.796Z,4.03
2023-04-16T04:39:25.942Z,3.70
2023-04-16T04:41:57.418Z,3.85
2023-04-16T04:44:27.522Z,4.07
2023-04-16T04:46:57.635Z,4.30
2023-04-16T04:49:27.765Z,4.43
2023-04-16T04:51:57.885Z,4.22
2023-04-16T04:54:31.635Z,3.97
2023-04-16T04:57:02.086Z,3.45
2023-04-16T04:59:32.397Z,3.83
2023-04-16T05:02:03.660Z,4.82
2023-04-16T05:04:33.886Z,4.13
2023-04-16T05:07:04.015Z,3.70
2023-04-16T05:09:34.153Z,3.95
2023-04-16T05:12:04.407Z,4.18
2023-04-16T05:14:35.030Z,3.67
2023-04-16T05:17:05.212Z,3.90
2023-04-16T05:19:35.499Z,4.05
2023-04-16T05:22:05.914Z,3.97
2023-04-16T05:24:35.942Z,3.75
2023-04-16T05:27:06.643Z,4.53
2023-04-16T05:29:36.771Z,4.72
2023-04-16T05:32:06.910Z,5.03
2023-04-16T05:34:36.972Z,5.25
2023-04-16T05:37:07.068Z,4.88
2023-04-16T05:39:37.213Z,4.68
2023-04-16T05:42:07.298Z,4.50
2023-04-16T05:44:37.717Z,4.82
2023-04-16T05:47:09.626Z,4.75
2023-04-16T05:49:39.724Z,5.13
2023-04-16T05:52:10.219Z,5.30
2023-04-16T05:54:40.594Z,4.22
2023-04-16T05:57:10.901Z,4.38
2023-04-16T05:59:41.143Z,3.97
2023-04-16T06:02:11.465Z,3.58
2023-04-16T06:04:41.715Z,3.80
2023-04-16T06:07:11.951Z,4.68
2023-04-16T06:09:42.253Z,3.72
2023-04-16T06:12:13.139Z,3.55
2023-04-16T06:14:43.406Z,4.03
2023-04-16T06:17:13.648Z,4.00
2023-04-16T06:19:43.910Z,3.45
2023-04-16T06:22:14.244Z,3.13
2023-04-16T06:24:44.664Z,2.83
2023-04-16T06:27:14.830Z,3.38
2023-04-16T06:29:45.174Z,3.13
2023-04-16T06:32:17.303Z,3.53
2023-04-16T06:34:47.522Z,2.88
2023-04-16T06:37:17.735Z,3.33
2023-04-16T06:39:47.896Z,3.40
2023-04-16T06:42:19.079Z,2.80
2023-04-16T06:44:49.280Z,2.85
2023-04-16T06:47:19.557Z,3.10
2023-04-16T06:49:49.671Z,3.60
2023-04-16T06:52:19.873Z,4.28
2023-04-16T06:54:49.994Z,3.50
2023-04-16T06:57:20.158Z,3.40
2023-04-16T06:59:50.492Z,2.90
2023-04-16T07:02:20.892Z,3.03
2023-04-16T07:04:52.583Z,3.15
2023-04-16T07:07:22.632Z,3.20
2023-04-16T07:09:52.861Z,3.13
2023-04-16T07:12:23.144Z,3.10
2023-04-16T07:14:53.442Z,2.80
2023-04-16T07:17:23.567Z,4.15
2023-04-16T07:19:53.714Z,3.90
2023-04-16T07:22:23.859Z,3.78
2023-04-16T07:24:54.036Z,3.60
2023-04-16T07:27:24.233Z,3.47
2023-04-16T07:29:55.554Z,3.83
2023-04-16T07:32:26.372Z,3.30
2023-04-16T07:34:57.217Z,2.38
2023-04-16T07:37:27.450Z,2.58
2023-04-16T07:39:57.845Z,2.80
2023-04-16T07:42:28.400Z,2.45
2023-04-16T07:44:58.533Z,2.47
2023-04-16T07:47:28.730Z,2.20
2023-04-16T07:49:58.878Z,2.38
2023-04-16T07:52:29.049Z,2.40
2023-04-16T07:54:59.133Z,2.60
2023-04-16T07:57:29.334Z,2.08
2023-04-16T08:00:02.434Z,1.85
2023-04-16T08:02:33.142Z,2.40
2023-04-16T08:05:03.551Z,1.80
2023-04-16T08:07:34.836Z,1.95
2023-04-16T08:10:06.190Z,1.92
2023-04-16T08:12:36.427Z,2.08
2023-04-16T08:15:07.615Z,1.92
2023-04-16T08:17:37.922Z,2.28
2023-04-16T08:20:08.745Z,2.05
2023-04-16T08:22:38.870Z,2.05
2023-04-16T08:25:09.570Z,1.73
2023-04-16T08:27:39.734Z,1.77
2023-04-16T08:30:09.990Z,1.40
2023-04-16T08:32:40.197Z,1.30
2023-04-16T08:35:10.635Z,1.50
2023-04-16T08:37:40.902Z,1.80
2023-04-16T08:40:11.390Z,1.42
2023-04-16T08:42:49.019Z,1.20
2023-04-16T08:45:19.200Z,1.00
2023-04-16T08:47:51.624Z,1.20
2023-04-16T08:50:26.809Z,1.70
2023-04-16T08:53:09.161Z,1.40
2023-04-16T08:55:41.457Z,1.40
2023-04-16T08:58:19.194Z,1.10
2023-04-16T09:00:50.128Z,1.10
2023-04-16T09:03:21.881Z,1.67
2023-04-16T09:05:53.779Z,1.13
2023-04-16T09:08:24.583Z,1.17
2023-04-16T09:10:56.180Z,1.42
2023-04-16T09:13:27.148Z,1.35
2023-04-16T09:15:57.803Z,1.30
2023-04-16T09:18:28.650Z,1.30
2023-04-16T09:20:58.974Z,1.95
2023-04-16T09:23:29.838Z,2.03
2023-04-16T09:26:00.156Z,1.27
2023-04-16T09:28:45.514Z,1.00
2023-04-16T09:31:18.032Z,1.35
2023-04-16T09:34:09.315Z,1.33
2023-04-16T09:36:40.209Z,1.10
2023-04-16T09:39:21.471Z,2.95
2023-04-16T09:41:55.350Z,6.65
2023-04-16T09:44:38.567Z,5.82
2023-04-16T09:47:09.814Z,3.17
2023-04-16T09:49:43.700Z,6.18
2023-04-16T09:52:19.265Z,3.17
2023-04-16T09:54:54.490Z,3.10
2023-04-16T09:57:26.199Z,3.38
2023-04-16T10:00:05.330Z,2.17
2023-04-16T10:02:39.666Z,1.52
2023-04-16T10:05:11.042Z,4.70
2023-04-16T10:07:41.665Z,2.10
2023-04-16T10:10:15.953Z,1.52
2023-04-16T10:12:47.842Z,2.30
2023-04-16T10:15:24.459Z,1.20
2023-04-16T10:20:33.082Z,1.42
2023-04-16T10:23:10.199Z,4.55
2023-04-16T10:25:47.761Z,5.00
2023-04-16T10:28:23.498Z,2.83
2023-04-16T10:30:58.782Z,4.13
2023-04-16T10:33:47.796Z,3.80
2023-04-16T10:36:30.073Z,3.95
2023-04-16T10:39:13.075Z,3.85
2023-04-16T10:41:46.373Z,4.20
2023-04-16T10:44:20.832Z,2.92
2023-04-16T10:46:59.737Z,4.50
2023-04-16T10:49:29.910Z,7.78
2023-04-16T10:52:07.521Z,5.78
2023-04-16T10:54:38.269Z,8.43
2023-04-16T10:57:19.861Z,6.13
2023-04-16T10:59:50.028Z,4.53
2023-04-16T11:02:20.394Z,3.20
2023-04-16T11:04:50.819Z,2.05
2023-04-16T11:07:32.271Z,1.75
2023-04-16T11:10:06.928Z,5.60
2023-04-16T11:12:45.049Z,3.65
2023-04-16T11:15:17.127Z,2.90
2023-04-16T11:17:50.785Z,2.50
2023-04-16T11:20:28.415Z,1.92
2023-04-16T11:22:58.851Z,2.20
2023-04-16T11:25:31.775Z,2.30
2023-04-16T11:28:02.714Z,2.80
2023-04-16T11:30:34.827Z,2.65
2023-04-16T11:33:05.601Z,2.60
2023-04-16T11:35:36.280Z,3.03
2023-04-16T11:38:07.692Z,2.35
2023-04-16T11:40:38.090Z,2.20
2023-04-16T11:43:16.588Z,1.70
2023-04-16T11:45:59.789Z,2.10
2023-04-16T11:48:54.592Z,3.70
2023-04-16T11:51:24.999Z,3.20
2023-04-16T11:53:56.642Z,5.10
2023-04-16T11:56:29.608Z,3.45
2023-04-16T11:59:15.841Z,2.47
2023-04-16T12:01:48.709Z,3.28
2023-04-16T12:04:21.577Z,2.50
2023-04-16T12:07:10.701Z,2.72
2023-04-16T12:09:43.268Z,2.65
2023-04-16T12:12:31.579Z,1.77
2023-04-16T12:15:04.090Z,2.55
2023-04-16T12:17:35.761Z,3.58
2023-04-16T12:20:13.971Z,4.82
2023-04-16T12:22:47.036Z,3.30
2023-04-16T12:25:18.248Z,2.13
2023-04-16T12:27:54.220Z,3.17
2023-04-16T12:30:26.603Z,3.28
2023-04-16T12:33:17.489Z,2.65
2023-04-16T12:35:47.772Z,1.85
2023-04-16T12:38:17.792Z,1.65
2023-04-16T12:40:48.069Z,2.58
2023-04-16T12:43:18.154Z,1.80
2023-04-16T12:45:48.933Z,2.05
2023-04-16T12:48:19.667Z,1.88
2023-04-16T12:50:55.034Z,3.08
2023-04-16T12:53:25.237Z,3.38
2023-04-16T12:55:55.481Z,2.80
2023-04-16T12:58:25.703Z,2.22
2023-04-16T13:00:56.086Z,2.00
2023-04-16T13:03:26.576Z,1.85
2023-04-16T13:05:57.199Z,1.73
2023-04-16T13:08:27.309Z,2.00
2023-04-16T13:10:57.585Z,2.25
2023-04-16T13:13:27.766Z,1.77
2023-04-16T13:15:58.061Z,2.38
2023-04-16T13:18:28.210Z,4.18
2023-04-16T13:20:58.789Z,6.45
2023-04-16T13:23:29.163Z,4.32
2023-04-16T13:25:59.279Z,3.00
2023-04-16T13:28:29.502Z,2.08
2023-04-16T13:31:00.013Z,3.40
2023-04-16T13:33:30.243Z,2.30
2023-04-16T13:36:00.529Z,2.28
2023-04-16T13:38:30.652Z,1.98
2023-04-16T13:41:10.561Z,2.75
2023-04-16T13:43:40.621Z,2.42
2023-04-16T13:46:10.774Z,3.58
2023-04-16T13:48:41.060Z,3.60
2023-04-16T13:51:11.336Z,4.40
2023-04-16T13:53:45.262Z,4.43
2023-04-16T13:56:20.732Z,3.38
2023-04-16T13:58:51.120Z,3.22
2023-04-16T14:01:21.958Z,3.20
2023-04-16T14:03:52.254Z,2.63
2023-04-16T14:06:22.480Z,3.00
2023-04-16T14:08:52.712Z,2.47
2023-04-16T14:11:23.799Z,2.92
2023-04-16T14:13:54.159Z,2.13
2023-04-16T14:16:24.522Z,2.85
2023-04-16T14:18:56.258Z,6.22
2023-04-16T14:21:27.412Z,4.80
2023-04-16T14:23:57.801Z,3.60
2023-04-16T14:26:28.003Z,4.72
2023-04-16T14:28:58.224Z,4.15
2023-04-16T14:31:28.571Z,4.30
2023-04-16T14:33:58.818Z,5.05
2023-04-16T14:36:30.185Z,5.90
2023-04-16T14:39:00.861Z,7.47
2023-04-16T14:41:31.579Z,6.15
2023-04-16T14:44:01.621Z,10.32
2023-04-16T14:46:33.887Z,6.50
2023-04-16T14:49:04.598Z,5.35
2023-04-16T14:51:36.120Z,6.95
2023-04-16T14:54:06.637Z,4.75
2023-04-16T14:56:36.697Z,3.78
2023-04-16T14:59:07.053Z,4.15
2023-04-16T15:01:39.865Z,3.83
2023-04-16T15:04:10.260Z,2.70
2023-04-16T15:06:40.576Z,2.10
2023-04-16T15:09:10.996Z,2.33
2023-04-16T15:11:41.227Z,1.70
2023-04-16T15:14:11.586Z,1.65
2023-04-16T15:16:42.930Z,1.48
2023-04-16T15:19:15.886Z,1.80
2023-04-16T15:21:50.834Z,1.75
2023-04-16T15:24:25.332Z,2.00
2023-04-16T15:26:59.593Z,2.08
2023-04-16T15:29:30.932Z,2.42
2023-04-16T15:32:01.528Z,2.22
2023-04-16T15:34:32.813Z,2.80
2023-04-16T15:37:02.947Z,3.47
2023-04-16T15:39:33.115Z,3.47
2023-04-16T15:42:07.397Z,4.40
2023-04-16T15:44:37.957Z,4.47
2023-04-16T15:47:08.909Z,2.75
2023-04-16T15:49:39.076Z,3.00
2023-04-16T15:52:11.991Z,4.78
2023-04-16T15:54:43.200Z,4.85
2023-04-16T15:57:13.384Z,3.92
2023-04-16T15:59:46.195Z,3.10
2023-04-16T16:02:23.517Z,1.92
2023-04-16T16:04:54.091Z,5.50
2023-04-16T16:07:25.368Z,11.90
2023-04-16T16:09:56.461Z,8.90
2023-04-16T16:12:29.752Z,10.50
2023-04-16T16:15:00.218Z,11.38
2023-04-16T16:17:32.790Z,8.82
2023-04-16T16:20:06.878Z,8.95
2023-04-16T16:22:38.466Z,7.65
2023-04-16T16:25:16.663Z,7.85
2023-04-16T16:27:57.267Z,7.07
2023-04-16T16:30:31.415Z,4.00
2023-04-16T16:33:01.668Z,2.78
2023-04-16T16:35:32.113Z,3.38
2023-04-16T16:38:08.975Z,5.63
2023-04-16T16:40:41.025Z,5.50
2023-04-16T16:43:14.230Z,5.38
2023-04-16T16:45:46.607Z,5.93
2023-04-16T16:48:19.197Z,7.47
2023-04-16T16:51:05.700Z,5.43
2023-04-16T16:56:06.794Z,3.55
2023-04-16T16:58:39.159Z,3.35
2023-04-16T17:01:09.785Z,2.35
2023-04-16T17:03:40.852Z,2.40
2023-04-16T17:06:11.292Z,3.00
2023-04-16T17:08:41.456Z,3.25
2023-04-16T17:11:11.809Z,4.07
2023-04-16T17:13:42.027Z,4.88
2023-04-16T17:16:13.510Z,6.20
2023-04-16T17:18:43.790Z,6.43
2023-04-16T17:21:15.927Z,6.68
2023-04-16T17:23:46.810Z,5.95
2023-04-16T17:26:17.324Z,6.97
2023-04-16T17:28:48.249Z,6.03
2023-04-16T17:31:18.622Z,3.75
2023-04-16T17:33:49.893Z,4.30
2023-04-16T17:36:21.825Z,3.50
2023-04-16T17:38:52.134Z,3.65
2023-04-16T17:41:22.300Z,3.10
2023-04-16T17:43:52.746Z,3.03
2023-04-16T17:46:23.379Z,3.83
2023-04-16T17:48:53.958Z,4.68
2023-04-16T17:51:24.320Z,4.57
2023-04-16T17:53:54.647Z,3.53
2023-04-16T17:56:40.398Z,2.83
2023-04-16T17:59:10.630Z,2.67
2023-04-16T18:01:41.208Z,5.88
2023-04-16T18:04:11.752Z,27.50
2023-04-16T18:06:43.116Z,31.88
2023-04-16T18:09:14.595Z,32.88
2023-04-16T18:11:47.745Z,28.38
2023-04-16T18:14:20.469Z,20.27
2023-04-16T18:16:50.817Z,32.17
2023-04-16T18:19:26.489Z,24.75
2023-04-16T18:21:56.684Z,41.67
2023-04-16T18:24:27.103Z,36.17
2023-04-16T18:26:57.362Z,28.20
2023-04-16T18:29:27.457Z,22.08
2023-04-16T18:31:58.126Z,19.15
2023-04-16T18:34:29.850Z,18.30
2023-04-16T18:37:00.978Z,26.40
2023-04-16T18:39:33.939Z,19.65
2023-04-16T18:42:06.864Z,17.30
2023-04-16T18:44:37.545Z,13.68
2023-04-16T18:47:08.386Z,12.48
2023-04-16T18:49:38.748Z,10.50
2023-04-16T18:52:09.189Z,8.50
2023-04-16T18:54:40.953Z,7.53
2023-04-16T18:57:11.110Z,6.28
2023-04-16T18:59:41.273Z,4.85
2023-04-16T19:02:11.471Z,2.78
2023-04-16T19:04:42.986Z,3.70
2023-04-16T19:07:13.331Z,3.60
2023-04-16T19:09:43.538Z,3.28
2023-04-16T19:12:13.795Z,3.25
2023-04-16T19:14:43.916Z,2.80
2023-04-16T19:17:14.037Z,4.65
2023-04-16T19:19:44.216Z,5.07
2023-04-16T19:22:14.468Z,4.35
2023-04-16T19:24:44.616Z,6.57
2023-04-16T19:27:14.833Z,9.45
2023-04-16T19:29:46.846Z,10.38
2023-04-16T19:32:16.974Z,11.05
2023-04-16T19:34:47.661Z,11.52
2023-04-16T19:37:18.510Z,9.65
2023-04-16T19:39:48.751Z,9.50
2023-04-16T19:42:18.961Z,7.13
2023-04-16T19:44:49.210Z,8.55
2023-04-16T19:47:20.402Z,7.65
2023-04-16T19:49:51.644Z,8.13
2023-04-16T19:52:22.914Z,7.68
2023-04-16T19:54:56.830Z,8.93
2023-04-16T19:57:29.141Z,8.85
2023-04-16T19:59:59.482Z,8.05
2023-04-16T20:02:29.719Z,7.05
2023-04-16T20:05:01.602Z,6.35
2023-04-16T20:07:31.677Z,6.82
2023-04-16T20:10:03.100Z,5.82
2023-04-16T20:12:33.606Z,5.32
2023-04-16T20:15:04.619Z,5.22
2023-04-16T20:17:34.878Z,4.28
2023-04-16T20:20:10.229Z,4.63
2023-04-16T20:22:40.583Z,4.30
2023-04-16T20:25:10.812Z,4.57
2023-04-16T20:27:40.979Z,4.25
2023-04-16T20:30:11.665Z,4.32
2023-04-16T20:32:41.963Z,3.92
2023-04-16T20:35:12.321Z,2.92
2023-04-16T20:37:43.283Z,2.83
2023-04-16T20:40:15.090Z,3.35
2023-04-16T20:42:51.040Z,2.90
2023-04-16T20:45:22.008Z,3.63
2023-04-16T20:47:52.410Z,3.50
2023-04-16T20:50:22.530Z,4.15
2023-04-16T20:52:53.009Z,3.85
2023-04-16T20:55:23.239Z,5.00
2023-04-16T20:57:53.349Z,5.10
2023-04-16T21:00:23.555Z,6.35
2023-04-16T21:02:53.826Z,6.72
2023-04-16T21:05:26.637Z,7.55
2023-04-16T21:07:56.798Z,7.53
2023-04-16T21:10:26.917Z,7.25
2023-04-16T21:12:57.244Z,5.32
2023-04-16T21:15:27.297Z,4.75
2023-04-16T21:17:57.515Z,4.63
2023-04-16T21:20:29.917Z,4.40
2023-04-16T21:23:01.206Z,3.78
2023-04-16T21:25:31.956Z,3.70
2023-04-16T21:28:02.166Z,3.50
2023-04-16T21:30:32.538Z,4.30
2023-04-16T21:33:03.534Z,4.20
2023-04-16T21:35:34.171Z,3.95
2023-04-16T21:38:04.285Z,4.05
2023-04-16T21:40:34.894Z,3.17
2023-04-16T21:43:05.072Z,3.53
2023-04-16T21:45:35.757Z,4.30
2023-04-16T21:48:06.159Z,4.78
2023-04-16T21:50:36.338Z,5.47
2023-04-16T21:53:06.771Z,4.78
2023-04-16T21:55:37.180Z,4.40
2023-04-16T21:58:07.375Z,5.32
2023-04-16T22:00:37.566Z,7.13
2023-04-16T22:03:09.225Z,5.65
2023-04-16T22:05:39.478Z,5.78
2023-04-16T22:08:23.459Z,6.03
2023-04-16T22:11:02.247Z,6.15
2023-04-16T22:13:36.795Z,6.55
2023-04-16T22:16:08.808Z,6.40
2023-04-16T22:18:41.564Z,5.88
2023-04-16T22:21:11.843Z,5.28
2023-04-16T22:23:42.025Z,5.15
2023-04-16T22:26:13.011Z,4.78
2023-04-16T22:28:43.168Z,4.10
2023-04-16T22:31:13.534Z,4.05
2023-04-16T22:33:43.650Z,4.18
2023-04-16T22:36:13.863Z,3.38
2023-04-16T22:38:44.007Z,4.07
2023-04-16T22:41:14.291Z,3.00
2023-04-16T22:43:44.405Z,2.72
2023-04-16T22:46:14.772Z,2.40
2023-04-16T22:48:45.014Z,2.53
2023-04-16T22:51:15.205Z,2.08
2023-04-16T22:53:45.304Z,2.40
2023-04-16T22:56:15.442Z,1.88
2023-04-16T22:58:46.486Z,1.65
2023-04-16T23:01:17.250Z,2.08
2023-04-16T23:03:47.615Z,1.90
2023-04-16T23:06:17.843Z,1.73
2023-04-16T23:08:47.953Z,1.70
2023-04-16T23:11:18.156Z,1.67
2023-04-16T23:13:48.395Z,1.63
2023-04-16T23:16:18.623Z,2.50
2023-04-16T23:18:48.773Z,2.15
2023-04-16T23:21:18.914Z,2.53
2023-04-16T23:23:49.050Z,2.10
2023-04-16T23:26:19.100Z,2.85
2023-04-16T23:28:49.255Z,2.53
2023-04-16T23:31:19.343Z,2.67
2023-04-16T23:33:49.526Z,2.67
2023-04-16T23:36:19.648Z,2.45
2023-04-16T23:38:49.813Z,3.58
2023-04-16T23:41:20.030Z,3.25
2023-04-16T23:43:50.209Z,3.25
2023-04-16T23:46:20.541Z,2.90
2023-04-16T23:48:50.780Z,2.40
2023-04-16T23:51:20.986Z,2.63
2023-04-16T23:53:51.121Z,2.50
2023-04-16T23:56:21.370Z,3.10
2023-04-16T23:58:51.534Z,2.95
